sensor_id;sensor_type;location;lat;lon;timestamp;temperature;humidity
65972;SHT31;52726;48.852;9.152;2023-11-19T00:02:07;7.75;96.43
65972;SHT31;52726;48.852;9.152;2023-11-19T00:04:36;7.82;96.63
65972;SHT31;52726;48.852;9.152;2023-11-19T00:07:01;7.85;96.58
65972;SHT31;52726;48.852;9.152;2023-11-19T00:09:29;7.92;96.86
65972;SHT31;52726;48.852;9.152;2023-11-19T00:11:55;7.96;97.01
65972;SHT31;52726;48.852;9.152;2023-11-19T00:14:20;8.03;97.20
65972;SHT31;52726;48.852;9.152;2023-11-19T00:16:46;8.13;97.32
65972;SHT31;52726;48.852;9.152;2023-11-19T00:19:11;8.22;97.37
65972;SHT31;52726;48.852;9.152;2023-11-19T00:21:37;8.29;97.46
65972;SHT31;52726;48.852;9.152;2023-11-19T00:24:02;8.41;97.52
65972;SHT31;52726;48.852;9.152;2023-11-19T00:26:29;8.52;97.71
65972;SHT31;52726;48.852;9.152;2023-11-19T00:28:55;8.67;97.66
65972;SHT31;52726;48.852;9.152;2023-11-19T00:31:21;8.69;97.51
65972;SHT31;52726;48.852;9.152;2023-11-19T00:33:46;8.69;97.34
65972;SHT31;52726;48.852;9.152;2023-11-19T00:36:11;8.75;97.40
65972;SHT31;52726;48.852;9.152;2023-11-19T00:38:37;8.75;97.21
65972;SHT31;52726;48.852;9.152;2023-11-19T00:41:02;8.79;97.37
65972;SHT31;52726;48.852;9.152;2023-11-19T00:43:28;8.82;97.20
65972;SHT31;52726;48.852;9.152;2023-11-19T00:45:54;8.86;97.37
65972;SHT31;52726;48.852;9.152;2023-11-19T00:48:19;8.93;97.04
65972;SHT31;52726;48.852;9.152;2023-11-19T00:50:44;8.93;97.09
65972;SHT31;52726;48.852;9.152;2023-11-19T00:53:10;8.96;97.08
65972;SHT31;52726;48.852;9.152;2023-11-19T00:55:36;8.96;97.18
65972;SHT31;52726;48.852;9.152;2023-11-19T00:58:01;8.99;97.26
65972;SHT31;52726;48.852;9.152;2023-11-19T01:00:28;9.03;97.11
65972;SHT31;52726;48.852;9.152;2023-11-19T01:02:53;9.06;97.16
65972;SHT31;52726;48.852;9.152;2023-11-19T01:05:20;9.10;97.05
65972;SHT31;52726;48.852;9.152;2023-11-19T01:07:48;9.15;97.06
65972;SHT31;52726;48.852;9.152;2023-11-19T01:10:14;9.15;96.96
65972;SHT31;52726;48.852;9.152;2023-11-19T01:12:41;9.15;97.05
65972;SHT31;52726;48.852;9.152;2023-11-19T01:15:07;9.18;97.05
65972;SHT31;52726;48.852;9.152;2023-11-19T01:17:33;9.23;97.17
65972;SHT31;52726;48.852;9.152;2023-11-19T01:20:07;9.22;96.94
65972;SHT31;52726;48.852;9.152;2023-11-19T01:22:43;9.27;96.77
65972;SHT31;52726;48.852;9.152;2023-11-19T01:25:08;9.27;97.03
65972;SHT31;52726;48.852;9.152;2023-11-19T01:27:34;9.26;96.97
65972;SHT31;52726;48.852;9.152;2023-11-19T01:30:01;9.27;97.00
65972;SHT31;52726;48.852;9.152;2023-11-19T01:32:28;9.31;97.02
65972;SHT31;52726;48.852;9.152;2023-11-19T01:34:53;9.34;97.08
65972;SHT31;52726;48.852;9.152;2023-11-19T01:37:18;9.36;97.15
65972;SHT31;52726;48.852;9.152;2023-11-19T01:39:44;9.33;97.03
65972;SHT31;52726;48.852;9.152;2023-11-19T01:42:10;9.33;97.19
65972;SHT31;52726;48.852;9.152;2023-11-19T01:44:37;9.31;97.24
65972;SHT31;52726;48.852;9.152;2023-11-19T01:47:02;9.37;97.37
65972;SHT31;52726;48.852;9.152;2023-11-19T01:49:30;9.41;97.43
65972;SHT31;52726;48.852;9.152;2023-11-19T01:51:57;9.44;97.50
65972;SHT31;52726;48.852;9.152;2023-11-19T01:54:22;9.43;97.35
65972;SHT31;52726;48.852;9.152;2023-11-19T01:56:48;9.40;97.42
65972;SHT31;52726;48.852;9.152;2023-11-19T01:59:13;9.43;97.65
65972;SHT31;52726;48.852;9.152;2023-11-19T02:01:40;9.44;97.77
65972;SHT31;52726;48.852;9.152;2023-11-19T02:04:06;9.46;97.71
65972;SHT31;52726;48.852;9.152;2023-11-19T02:06:33;9.38;97.83
65972;SHT31;52726;48.852;9.152;2023-11-19T02:08:59;9.43;97.93
65972;SHT31;52726;48.852;9.152;2023-11-19T02:11:25;9.43;97.86
65972;SHT31;52726;48.852;9.152;2023-11-19T02:13:57;9.43;97.99
65972;SHT31;52726;48.852;9.152;2023-11-19T02:16:22;9.43;98.08
65972;SHT31;52726;48.852;9.152;2023-11-19T02:18:47;9.41;98.12
65972;SHT31;52726;48.852;9.152;2023-11-19T02:21:13;9.43;98.14
65972;SHT31;52726;48.852;9.152;2023-11-19T02:23:40;9.41;98.28
65972;SHT31;52726;48.852;9.152;2023-11-19T02:28:44;9.46;98.28
65972;SHT31;52726;48.852;9.152;2023-11-19T02:31:10;9.44;98.28
65972;SHT31;52726;48.852;9.152;2023-11-19T02:33:37;9.44;98.30
65972;SHT31;52726;48.852;9.152;2023-11-19T02:36:04;9.46;98.35
65972;SHT31;52726;48.852;9.152;2023-11-19T02:38:30;9.46;98.48
65972;SHT31;52726;48.852;9.152;2023-11-19T02:40:56;9.46;98.53
65972;SHT31;52726;48.852;9.152;2023-11-19T02:43:22;9.47;98.48
65972;SHT31;52726;48.852;9.152;2023-11-19T02:45:47;9.44;98.54
65972;SHT31;52726;48.852;9.152;2023-11-19T02:48:13;9.44;98.65
65972;SHT31;52726;48.852;9.152;2023-11-19T02:50:41;9.46;98.72
65972;SHT31;52726;48.852;9.152;2023-11-19T02:53:07;9.47;98.74
65972;SHT31;52726;48.852;9.152;2023-11-19T02:55:32;9.43;98.77
65972;SHT31;52726;48.852;9.152;2023-11-19T02:58:03;9.43;98.78
65972;SHT31;52726;48.852;9.152;2023-11-19T03:00:34;9.41;98.85
65972;SHT31;52726;48.852;9.152;2023-11-19T03:03:02;9.41;98.87
65972;SHT31;52726;48.852;9.152;2023-11-19T03:05:43;9.43;98.95
65972;SHT31;52726;48.852;9.152;2023-11-19T03:08:09;9.41;99.03
65972;SHT31;52726;48.852;9.152;2023-11-19T03:10:35;9.44;98.99
65972;SHT31;52726;48.852;9.152;2023-11-19T03:13:00;9.44;99.19
65972;SHT31;52726;48.852;9.152;2023-11-19T03:15:27;9.44;99.10
65972;SHT31;52726;48.852;9.152;2023-11-19T03:17:52;9.41;99.06
65972;SHT31;52726;48.852;9.152;2023-11-19T03:20:18;9.43;99.11
65972;SHT31;52726;48.852;9.152;2023-11-19T03:22:43;9.44;99.20
65972;SHT31;52726;48.852;9.152;2023-11-19T03:25:10;9.47;99.27
65972;SHT31;52726;48.852;9.152;2023-11-19T03:27:39;9.46;99.29
65972;SHT31;52726;48.852;9.152;2023-11-19T03:30:13;9.50;99.35
65972;SHT31;52726;48.852;9.152;2023-11-19T03:32:38;9.48;99.29
65972;SHT31;52726;48.852;9.152;2023-11-19T03:35:05;9.51;99.25
65972;SHT31;52726;48.852;9.152;2023-11-19T03:37:32;9.55;99.39
65972;SHT31;52726;48.852;9.152;2023-11-19T03:39:58;9.57;99.41
65972;SHT31;52726;48.852;9.152;2023-11-19T03:42:27;9.58;99.37
65972;SHT31;52726;48.852;9.152;2023-11-19T03:44:53;9.62;99.39
65972;SHT31;52726;48.852;9.152;2023-11-19T03:47:19;9.62;99.37
65972;SHT31;52726;48.852;9.152;2023-11-19T03:49:48;9.64;99.33
65972;SHT31;52726;48.852;9.152;2023-11-19T03:52:14;9.64;99.31
65972;SHT31;52726;48.852;9.152;2023-11-19T03:54:39;9.68;99.28
65972;SHT31;52726;48.852;9.152;2023-11-19T03:57:04;9.70;99.33
65972;SHT31;52726;48.852;9.152;2023-11-19T03:59:30;9.73;99.33
65972;SHT31;52726;48.852;9.152;2023-11-19T04:01:55;9.74;99.37
65972;SHT31;52726;48.852;9.152;2023-11-19T04:04:21;9.75;99.26
65972;SHT31;52726;48.852;9.152;2023-11-19T04:06:48;9.81;99.27
65972;SHT31;52726;48.852;9.152;2023-11-19T04:09:13;9.81;99.26
65972;SHT31;52726;48.852;9.152;2023-11-19T04:11:38;9.79;99.20
65972;SHT31;52726;48.852;9.152;2023-11-19T04:14:05;9.81;99.25
65972;SHT31;52726;48.852;9.152;2023-11-19T04:16:30;9.79;99.23
65972;SHT31;52726;48.852;9.152;2023-11-19T04:18:56;9.85;99.29
65972;SHT31;52726;48.852;9.152;2023-11-19T04:21:21;9.79;99.32
65972;SHT31;52726;48.852;9.152;2023-11-19T04:23:48;9.82;99.35
65972;SHT31;52726;48.852;9.152;2023-11-19T04:26:13;9.81;99.32
65972;SHT31;52726;48.852;9.152;2023-11-19T04:28:39;9.79;99.36
65972;SHT31;52726;48.852;9.152;2023-11-19T04:31:04;9.85;99.49
65972;SHT31;52726;48.852;9.152;2023-11-19T04:33:31;9.85;99.43
65972;SHT31;52726;48.852;9.152;2023-11-19T04:35:56;9.88;99.42
65972;SHT31;52726;48.852;9.152;2023-11-19T04:38:21;9.88;99.46
65972;SHT31;52726;48.852;9.152;2023-11-19T04:40:47;9.88;99.49
65972;SHT31;52726;48.852;9.152;2023-11-19T04:43:18;9.94;99.61
65972;SHT31;52726;48.852;9.152;2023-11-19T04:45:45;9.98;99.54
65972;SHT31;52726;48.852;9.152;2023-11-19T04:48:11;9.98;99.61
65972;SHT31;52726;48.852;9.152;2023-11-19T04:50:37;10.02;99.50
65972;SHT31;52726;48.852;9.152;2023-11-19T04:53:03;10.05;99.47
65972;SHT31;52726;48.852;9.152;2023-11-19T04:55:28;10.10;99.48
65972;SHT31;52726;48.852;9.152;2023-11-19T04:57:54;10.13;99.47
65972;SHT31;52726;48.852;9.152;2023-11-19T05:00:19;10.19;99.37
65972;SHT31;52726;48.852;9.152;2023-11-19T05:02:46;10.22;99.37
65972;SHT31;52726;48.852;9.152;2023-11-19T05:05:12;10.20;99.17
65972;SHT31;52726;48.852;9.152;2023-11-19T05:07:37;10.25;99.30
65972;SHT31;52726;48.852;9.152;2023-11-19T05:10:03;10.29;99.16
65972;SHT31;52726;48.852;9.152;2023-11-19T05:12:31;10.34;99.15
65972;SHT31;52726;48.852;9.152;2023-11-19T05:14:56;10.37;99.02
65972;SHT31;52726;48.852;9.152;2023-11-19T05:17:23;10.39;98.95
65972;SHT31;52726;48.852;9.152;2023-11-19T05:19:48;10.42;98.89
65972;SHT31;52726;48.852;9.152;2023-11-19T05:22:13;10.39;98.87
65972;SHT31;52726;48.852;9.152;2023-11-19T05:24:39;10.40;98.97
65972;SHT31;52726;48.852;9.152;2023-11-19T05:27:05;10.40;98.97
65972;SHT31;52726;48.852;9.152;2023-11-19T05:29:32;10.42;99.00
65972;SHT31;52726;48.852;9.152;2023-11-19T05:31:57;10.47;99.04
65972;SHT31;52726;48.852;9.152;2023-11-19T05:34:22;10.47;98.90
65972;SHT31;52726;48.852;9.152;2023-11-19T05:36:48;10.49;98.89
65972;SHT31;52726;48.852;9.152;2023-11-19T05:39:13;10.50;98.88
65972;SHT31;52726;48.852;9.152;2023-11-19T05:41:39;10.50;98.84
65972;SHT31;52726;48.852;9.152;2023-11-19T05:44:05;10.51;98.88
65972;SHT31;52726;48.852;9.152;2023-11-19T05:46:30;10.53;98.74
65972;SHT31;52726;48.852;9.152;2023-11-19T05:48:55;10.56;98.65
65972;SHT31;52726;48.852;9.152;2023-11-19T05:51:21;10.57;98.46
65972;SHT31;52726;48.852;9.152;2023-11-19T05:53:46;10.60;98.39
65972;SHT31;52726;48.852;9.152;2023-11-19T05:56:11;10.63;98.41
65972;SHT31;52726;48.852;9.152;2023-11-19T05:58:37;10.61;98.20
65972;SHT31;52726;48.852;9.152;2023-11-19T06:01:02;10.70;98.26
65972;SHT31;52726;48.852;9.152;2023-11-19T06:03:29;10.70;97.89
65972;SHT31;52726;48.852;9.152;2023-11-19T06:05:54;10.67;97.64
65972;SHT31;52726;48.852;9.152;2023-11-19T06:08:20;10.67;97.66
65972;SHT31;52726;48.852;9.152;2023-11-19T06:10:46;10.65;97.65
65972;SHT31;52726;48.852;9.152;2023-11-19T06:13:12;10.67;97.82
65972;SHT31;52726;48.852;9.152;2023-11-19T06:15:37;10.70;97.71
65972;SHT31;52726;48.852;9.152;2023-11-19T06:18:03;10.71;97.70
65972;SHT31;52726;48.852;9.152;2023-11-19T06:20:32;10.71;97.77
65972;SHT31;52726;48.852;9.152;2023-11-19T06:22:58;10.72;97.81
65972;SHT31;52726;48.852;9.152;2023-11-19T06:25:24;10.74;97.80
65972;SHT31;52726;48.852;9.152;2023-11-19T06:27:49;10.75;97.80
65972;SHT31;52726;48.852;9.152;2023-11-19T06:30:15;10.84;97.92
65972;SHT31;52726;48.852;9.152;2023-11-19T06:32:40;10.91;97.76
65972;SHT31;52726;48.852;9.152;2023-11-19T06:35:06;10.92;97.49
65972;SHT31;52726;48.852;9.152;2023-11-19T06:37:31;10.94;97.47
65972;SHT31;52726;48.852;9.152;2023-11-19T06:39:57;10.95;97.32
65972;SHT31;52726;48.852;9.152;2023-11-19T06:42:22;10.99;97.07
65972;SHT31;52726;48.852;9.152;2023-11-19T06:44:47;11.02;96.98
65972;SHT31;52726;48.852;9.152;2023-11-19T06:47:13;11.08;96.91
65972;SHT31;52726;48.852;9.152;2023-11-19T06:49:38;11.08;96.68
65972;SHT31;52726;48.852;9.152;2023-11-19T06:52:04;11.12;96.50
65972;SHT31;52726;48.852;9.152;2023-11-19T06:54:30;11.14;96.37
65972;SHT31;52726;48.852;9.152;2023-11-19T06:56:58;11.15;96.34
65972;SHT31;52726;48.852;9.152;2023-11-19T06:59:23;11.15;96.27
65972;SHT31;52726;48.852;9.152;2023-11-19T07:01:49;11.15;96.29
65972;SHT31;52726;48.852;9.152;2023-11-19T07:04:14;11.16;96.29
65972;SHT31;52726;48.852;9.152;2023-11-19T07:06:39;11.18;96.06
65972;SHT31;52726;48.852;9.152;2023-11-19T07:09:08;11.19;95.99
65972;SHT31;52726;48.852;9.152;2023-11-19T07:11:40;11.15;95.96
65972;SHT31;52726;48.852;9.152;2023-11-19T07:14:07;11.18;95.95
65972;SHT31;52726;48.852;9.152;2023-11-19T07:16:33;11.15;96.00
65972;SHT31;52726;48.852;9.152;2023-11-19T07:19:03;11.14;96.06
65972;SHT31;52726;48.852;9.152;2023-11-19T07:21:28;11.12;95.99
65972;SHT31;52726;48.852;9.152;2023-11-19T07:23:54;11.15;96.12
65972;SHT31;52726;48.852;9.152;2023-11-19T07:26:20;11.18;95.90
65972;SHT31;52726;48.852;9.152;2023-11-19T07:28:45;11.18;96.14
65972;SHT31;52726;48.852;9.152;2023-11-19T07:31:11;11.19;95.98
65972;SHT31;52726;48.852;9.152;2023-11-19T07:33:39;11.16;96.12
65972;SHT31;52726;48.852;9.152;2023-11-19T07:36:05;11.19;96.17
65972;SHT31;52726;48.852;9.152;2023-11-19T07:38:30;11.18;96.19
65972;SHT31;52726;48.852;9.152;2023-11-19T07:40:56;11.19;96.19
65972;SHT31;52726;48.852;9.152;2023-11-19T07:43:21;11.23;96.08
65972;SHT31;52726;48.852;9.152;2023-11-19T07:45:46;11.22;96.08
65972;SHT31;52726;48.852;9.152;2023-11-19T07:48:12;11.23;95.87
65972;SHT31;52726;48.852;9.152;2023-11-19T07:50:41;11.26;95.77
65972;SHT31;52726;48.852;9.152;2023-11-19T07:53:07;11.29;95.61
65972;SHT31;52726;48.852;9.152;2023-11-19T07:55:33;11.32;95.57
65972;SHT31;52726;48.852;9.152;2023-11-19T07:57:58;11.39;95.28
65972;SHT31;52726;48.852;9.152;2023-11-19T08:00:24;11.42;94.88
65972;SHT31;52726;48.852;9.152;2023-11-19T08:02:49;11.47;94.54
65972;SHT31;52726;48.852;9.152;2023-11-19T08:05:14;11.53;94.32
65972;SHT31;52726;48.852;9.152;2023-11-19T08:07:40;11.60;94.17
65972;SHT31;52726;48.852;9.152;2023-11-19T08:10:05;11.64;94.23
65972;SHT31;52726;48.852;9.152;2023-11-19T08:12:35;11.69;94.06
65972;SHT31;52726;48.852;9.152;2023-11-19T08:15:02;11.71;93.98
65972;SHT31;52726;48.852;9.152;2023-11-19T08:17:27;11.73;94.09
65972;SHT31;52726;48.852;9.152;2023-11-19T08:19:52;11.78;93.94
65972;SHT31;52726;48.852;9.152;2023-11-19T08:22:18;11.85;93.90
65972;SHT31;52726;48.852;9.152;2023-11-19T08:24:43;11.97;93.72
65972;SHT31;52726;48.852;9.152;2023-11-19T08:27:08;12.06;93.36
65972;SHT31;52726;48.852;9.152;2023-11-19T08:29:34;12.10;93.09
65972;SHT31;52726;48.852;9.152;2023-11-19T08:32:01;12.08;92.94
65972;SHT31;52726;48.852;9.152;2023-11-19T08:34:29;12.11;92.88
65972;SHT31;52726;48.852;9.152;2023-11-19T08:36:55;12.08;92.82
65972;SHT31;52726;48.852;9.152;2023-11-19T08:39:21;12.08;93.26
65972;SHT31;52726;48.852;9.152;2023-11-19T08:41:47;12.08;93.69
65972;SHT31;52726;48.852;9.152;2023-11-19T08:44:13;12.12;93.62
65972;SHT31;52726;48.852;9.152;2023-11-19T08:46:38;12.11;93.96
65972;SHT31;52726;48.852;9.152;2023-11-19T08:49:05;12.10;93.95
65972;SHT31;52726;48.852;9.152;2023-11-19T08:51:31;12.18;94.31
65972;SHT31;52726;48.852;9.152;2023-11-19T08:53:56;12.21;94.29
65972;SHT31;52726;48.852;9.152;2023-11-19T08:56:23;12.25;93.31
65972;SHT31;52726;48.852;9.152;2023-11-19T08:58:48;12.33;93.06
65972;SHT31;52726;48.852;9.152;2023-11-19T09:01:13;12.39;92.42
65972;SHT31;52726;48.852;9.152;2023-11-19T09:03:39;12.45;92.17
65972;SHT31;52726;48.852;9.152;2023-11-19T09:06:04;12.53;92.06
65972;SHT31;52726;48.852;9.152;2023-11-19T09:08:29;12.63;91.64
65972;SHT31;52726;48.852;9.152;2023-11-19T09:10:55;12.73;91.82
65972;SHT31;52726;48.852;9.152;2023-11-19T09:13:20;12.83;91.37
65972;SHT31;52726;48.852;9.152;2023-11-19T09:15:45;12.84;91.02
65972;SHT31;52726;48.852;9.152;2023-11-19T09:18:11;12.84;91.55
65972;SHT31;52726;48.852;9.152;2023-11-19T09:20:36;12.84;91.65
65972;SHT31;52726;48.852;9.152;2023-11-19T09:23:04;12.76;91.36
65972;SHT31;52726;48.852;9.152;2023-11-19T09:25:31;12.73;91.23
65972;SHT31;52726;48.852;9.152;2023-11-19T09:27:57;12.72;91.51
65972;SHT31;52726;48.852;9.152;2023-11-19T09:30:29;12.77;90.63
65972;SHT31;52726;48.852;9.152;2023-11-19T09:32:58;12.69;91.13
65972;SHT31;52726;48.852;9.152;2023-11-19T09:35:24;12.62;91.08
65972;SHT31;52726;48.852;9.152;2023-11-19T09:37:50;12.57;91.33
65972;SHT31;52726;48.852;9.152;2023-11-19T09:40:16;12.63;91.54
65972;SHT31;52726;48.852;9.152;2023-11-19T09:42:44;12.67;91.36
65972;SHT31;52726;48.852;9.152;2023-11-19T09:45:17;12.72;91.64
65972;SHT31;52726;48.852;9.152;2023-11-19T09:47:44;12.81;91.90
65972;SHT31;52726;48.852;9.152;2023-11-19T09:50:18;12.83;91.49
65972;SHT31;52726;48.852;9.152;2023-11-19T09:52:45;12.83;90.78
65972;SHT31;52726;48.852;9.152;2023-11-19T09:55:10;12.86;90.90
65972;SHT31;52726;48.852;9.152;2023-11-19T09:57:38;12.97;90.42
65972;SHT31;52726;48.852;9.152;2023-11-19T10:00:04;13.03;90.15
65972;SHT31;52726;48.852;9.152;2023-11-19T10:02:34;12.98;90.52
65972;SHT31;52726;48.852;9.152;2023-11-19T10:05:09;12.98;90.63
65972;SHT31;52726;48.852;9.152;2023-11-19T10:07:35;13.01;90.58
65972;SHT31;52726;48.852;9.152;2023-11-19T10:10:01;13.06;90.47
65972;SHT31;52726;48.852;9.152;2023-11-19T10:12:28;13.11;91.00
65972;SHT31;52726;48.852;9.152;2023-11-19T10:14:56;13.14;90.08
65972;SHT31;52726;48.852;9.152;2023-11-19T10:17:29;13.25;88.00
65972;SHT31;52726;48.852;9.152;2023-11-19T10:19:57;13.44;87.25
65972;SHT31;52726;48.852;9.152;2023-11-19T10:22:23;13.63;87.66
65972;SHT31;52726;48.852;9.152;2023-11-19T10:24:49;13.75;85.57
65972;SHT31;52726;48.852;9.152;2023-11-19T10:27:15;13.91;85.59
65972;SHT31;52726;48.852;9.152;2023-11-19T10:29:44;14.13;84.07
65972;SHT31;52726;48.852;9.152;2023-11-19T10:32:12;14.16;83.20
65972;SHT31;52726;48.852;9.152;2023-11-19T10:34:37;14.09;84.12
65972;SHT31;52726;48.852;9.152;2023-11-19T10:37:04;14.02;83.66
65972;SHT31;52726;48.852;9.152;2023-11-19T10:39:51;14.00;83.54
65972;SHT31;52726;48.852;9.152;2023-11-19T10:42:17;14.13;81.73
65972;SHT31;52726;48.852;9.152;2023-11-19T10:44:42;14.25;81.83
65972;SHT31;52726;48.852;9.152;2023-11-19T10:47:08;14.31;81.82
65972;SHT31;52726;48.852;9.152;2023-11-19T10:49:35;14.41;80.71
65972;SHT31;52726;48.852;9.152;2023-11-19T10:52:01;14.61;81.69
65972;SHT31;52726;48.852;9.152;2023-11-19T10:54:27;14.64;80.20
65972;SHT31;52726;48.852;9.152;2023-11-19T10:56:59;14.55;80.31
65972;SHT31;52726;48.852;9.152;2023-11-19T10:59:28;14.40;79.44
65972;SHT31;52726;48.852;9.152;2023-11-19T11:01:56;14.35;79.73
65972;SHT31;52726;48.852;9.152;2023-11-19T11:04:25;14.28;79.41
65972;SHT31;52726;48.852;9.152;2023-11-19T11:06:54;14.27;78.60
65972;SHT31;52726;48.852;9.152;2023-11-19T11:09:20;14.20;79.77
65972;SHT31;52726;48.852;9.152;2023-11-19T11:11:47;14.11;79.26
65972;SHT31;52726;48.852;9.152;2023-11-19T11:14:13;14.13;77.31
65972;SHT31;52726;48.852;9.152;2023-11-19T11:16:43;14.09;77.90
65972;SHT31;52726;48.852;9.152;2023-11-19T11:19:10;14.03;79.49
65972;SHT31;52726;48.852;9.152;2023-11-19T11:21:38;14.00;78.73
65972;SHT31;52726;48.852;9.152;2023-11-19T11:29:52;13.96;79.41
65972;SHT31;52726;48.852;9.152;2023-11-19T11:35:15;13.91;80.17
65972;SHT31;52726;48.852;9.152;2023-11-19T11:37:46;13.90;80.15
65972;SHT31;52726;48.852;9.152;2023-11-19T11:40:17;14.03;79.36
65972;SHT31;52726;48.852;9.152;2023-11-19T11:42:44;14.14;78.35
65972;SHT31;52726;48.852;9.152;2023-11-19T11:45:11;14.21;79.04
65972;SHT31;52726;48.852;9.152;2023-11-19T11:50:19;14.44;79.15
65972;SHT31;52726;48.852;9.152;2023-11-19T11:57:59;14.52;78.76
65972;SHT31;52726;48.852;9.152;2023-11-19T12:00:30;14.65;77.43
65972;SHT31;52726;48.852;9.152;2023-11-19T12:02:56;14.79;78.10
65972;SHT31;52726;48.852;9.152;2023-11-19T12:05:22;14.88;76.94
65972;SHT31;52726;48.852;9.152;2023-11-19T12:08:00;14.80;77.42
65972;SHT31;52726;48.852;9.152;2023-11-19T12:10:30;14.75;77.31
65972;SHT31;52726;48.852;9.152;2023-11-19T12:13:05;14.80;77.59
65972;SHT31;52726;48.852;9.152;2023-11-19T12:18:26;14.68;77.34
65972;SHT31;52726;48.852;9.152;2023-11-19T12:20:52;14.54;78.52
65972;SHT31;52726;48.852;9.152;2023-11-19T12:23:17;14.41;78.11
65972;SHT31;52726;48.852;9.152;2023-11-19T12:25:42;14.30;77.47
65972;SHT31;52726;48.852;9.152;2023-11-19T12:28:16;14.27;76.66
65972;SHT31;52726;48.852;9.152;2023-11-19T12:30:45;14.30;75.89
65972;SHT31;52726;48.852;9.152;2023-11-19T12:33:12;14.28;75.74
65972;SHT31;52726;48.852;9.152;2023-11-19T12:35:41;14.21;74.91
65972;SHT31;52726;48.852;9.152;2023-11-19T12:38:07;14.24;74.93
65972;SHT31;52726;48.852;9.152;2023-11-19T12:40:33;14.20;75.49
65972;SHT31;52726;48.852;9.152;2023-11-19T12:42:59;14.30;75.63
65972;SHT31;52726;48.852;9.152;2023-11-19T12:45:34;14.24;74.94
65972;SHT31;52726;48.852;9.152;2023-11-19T12:48:09;14.23;75.81
65972;SHT31;52726;48.852;9.152;2023-11-19T12:51:06;14.34;75.91
65972;SHT31;52726;48.852;9.152;2023-11-19T12:53:50;14.49;74.89
65972;SHT31;52726;48.852;9.152;2023-11-19T12:56:18;14.61;72.97
65972;SHT31;52726;48.852;9.152;2023-11-19T12:58:43;14.75;72.40
65972;SHT31;52726;48.852;9.152;2023-11-19T13:01:09;14.89;72.91
65972;SHT31;52726;48.852;9.152;2023-11-19T13:03:38;14.99;72.76
65972;SHT31;52726;48.852;9.152;2023-11-19T13:06:07;15.02;73.19
65972;SHT31;52726;48.852;9.152;2023-11-19T13:08:40;14.93;73.16
65972;SHT31;52726;48.852;9.152;2023-11-19T13:11:06;14.79;73.15
65972;SHT31;52726;48.852;9.152;2023-11-19T13:14:13;14.69;73.57
65972;SHT31;52726;48.852;9.152;2023-11-19T13:16:39;14.67;73.57
65972;SHT31;52726;48.852;9.152;2023-11-19T13:19:04;14.73;73.10
65972;SHT31;52726;48.852;9.152;2023-11-19T13:21:30;14.61;73.35
65972;SHT31;52726;48.852;9.152;2023-11-19T13:23:56;14.52;73.50
65972;SHT31;52726;48.852;9.152;2023-11-19T13:26:21;14.42;74.14
65972;SHT31;52726;48.852;9.152;2023-11-19T13:28:47;14.31;73.73
65972;SHT31;52726;48.852;9.152;2023-11-19T13:31:13;14.25;71.84
65972;SHT31;52726;48.852;9.152;2023-11-19T13:33:38;14.20;72.03
65972;SHT31;52726;48.852;9.152;2023-11-19T13:36:04;14.13;71.37
65972;SHT31;52726;48.852;9.152;2023-11-19T13:38:35;14.04;72.85
65972;SHT31;52726;48.852;9.152;2023-11-19T13:41:01;14.00;73.74
65972;SHT31;52726;48.852;9.152;2023-11-19T13:43:27;14.06;74.86
65972;SHT31;52726;48.852;9.152;2023-11-19T13:45:56;14.16;74.52
65972;SHT31;52726;48.852;9.152;2023-11-19T13:48:21;14.21;73.73
65972;SHT31;52726;48.852;9.152;2023-11-19T13:50:47;14.28;73.36
65972;SHT31;52726;48.852;9.152;2023-11-19T13:53:12;14.37;73.63
65972;SHT31;52726;48.852;9.152;2023-11-19T13:55:38;14.38;72.62
65972;SHT31;52726;48.852;9.152;2023-11-19T13:58:03;14.35;72.76
65972;SHT31;52726;48.852;9.152;2023-11-19T14:00:28;14.32;73.72
65972;SHT31;52726;48.852;9.152;2023-11-19T14:02:54;14.25;74.49
65972;SHT31;52726;48.852;9.152;2023-11-19T14:05:19;14.28;69.45
65972;SHT31;52726;48.852;9.152;2023-11-19T14:07:45;14.23;72.44
65972;SHT31;52726;48.852;9.152;2023-11-19T14:10:14;14.16;71.08
65972;SHT31;52726;48.852;9.152;2023-11-19T14:12:41;14.10;68.30
65972;SHT31;52726;48.852;9.152;2023-11-19T14:15:08;14.13;67.48
65972;SHT31;52726;48.852;9.152;2023-11-19T14:17:42;14.20;66.48
65972;SHT31;52726;48.852;9.152;2023-11-19T14:20:08;14.06;68.21
65972;SHT31;52726;48.852;9.152;2023-11-19T14:22:45;13.97;69.01
65972;SHT31;52726;48.852;9.152;2023-11-19T14:25:15;13.93;68.72
65972;SHT31;52726;48.852;9.152;2023-11-19T14:27:41;13.87;69.72
65972;SHT31;52726;48.852;9.152;2023-11-19T14:30:08;13.79;70.51
65972;SHT31;52726;48.852;9.152;2023-11-19T14:32:38;13.72;69.83
65972;SHT31;52726;48.852;9.152;2023-11-19T14:35:04;13.72;70.01
65972;SHT31;52726;48.852;9.152;2023-11-19T14:37:30;13.65;70.62
65972;SHT31;52726;48.852;9.152;2023-11-19T14:39:59;13.62;69.64
65972;SHT31;52726;48.852;9.152;2023-11-19T14:42:25;13.56;70.36
65972;SHT31;52726;48.852;9.152;2023-11-19T14:44:51;13.58;69.93
65972;SHT31;52726;48.852;9.152;2023-11-19T14:47:24;13.52;71.22
65972;SHT31;52726;48.852;9.152;2023-11-19T14:49:49;13.45;71.82
65972;SHT31;52726;48.852;9.152;2023-11-19T14:52:15;13.31;72.89
65972;SHT31;52726;48.852;9.152;2023-11-19T14:54:40;13.27;73.18
65972;SHT31;52726;48.852;9.152;2023-11-19T14:57:06;13.21;73.47
65972;SHT31;52726;48.852;9.152;2023-11-19T14:59:37;13.19;73.55
65972;SHT31;52726;48.852;9.152;2023-11-19T15:02:03;13.11;74.02
65972;SHT31;52726;48.852;9.152;2023-11-19T15:04:29;13.06;73.70
65972;SHT31;52726;48.852;9.152;2023-11-19T15:06:58;13.00;74.25
65972;SHT31;52726;48.852;9.152;2023-11-19T15:09:24;13.25;71.57
65972;SHT31;52726;48.852;9.152;2023-11-19T15:11:50;13.18;73.02
65972;SHT31;52726;48.852;9.152;2023-11-19T15:14:16;13.08;73.60
65972;SHT31;52726;48.852;9.152;2023-11-19T15:16:44;13.14;72.52
65972;SHT31;52726;48.852;9.152;2023-11-19T15:19:10;13.03;73.59
65972;SHT31;52726;48.852;9.152;2023-11-19T15:21:37;12.93;73.46
65972;SHT31;52726;48.852;9.152;2023-11-19T15:24:03;12.93;73.00
65972;SHT31;52726;48.852;9.152;2023-11-19T15:26:33;12.97;72.72
65972;SHT31;52726;48.852;9.152;2023-11-19T15:28:59;12.91;72.08
65972;SHT31;52726;48.852;9.152;2023-11-19T15:31:24;12.79;73.09
65972;SHT31;52726;48.852;9.152;2023-11-19T15:33:49;12.75;73.03
65972;SHT31;52726;48.852;9.152;2023-11-19T15:36:16;12.72;72.95
65972;SHT31;52726;48.852;9.152;2023-11-19T15:38:42;12.64;73.25
65972;SHT31;52726;48.852;9.152;2023-11-19T15:41:08;12.63;72.84
65972;SHT31;52726;48.852;9.152;2023-11-19T15:43:33;12.48;74.18
65972;SHT31;52726;48.852;9.152;2023-11-19T15:45:59;12.41;73.98
65972;SHT31;52726;48.852;9.152;2023-11-19T15:48:24;12.33;74.55
65972;SHT31;52726;48.852;9.152;2023-11-19T15:50:51;12.32;74.72
65972;SHT31;52726;48.852;9.152;2023-11-19T15:53:16;12.26;74.93
65972;SHT31;52726;48.852;9.152;2023-11-19T15:55:43;12.22;75.13